Time;durP1;ratioP1;P1;durP2;ratioP2;P2;SDS_P1;SDS_P2;PMS_P1;PMS_P2;Temp;Humidity;BMP_temperature;BMP_pressure;BME280_temperature;BME280_humidity;BME280_pressure;Samples;Min_cycle;Max_cycle;Signal;HPM_P1;HPM_P2
2020/12/18 00:02:05;;;;;;;;;;;26.80;41.10;;;;;;5035322;28;20051;-62
2020/12/18 00:04:31;;;;;;;;;;;26.90;41.20;;;;;;5035356;28;19924;-62
2020/12/18 00:06:56;;;;;;;;;;;26.90;41.10;;;;;;5035274;28;19920;-62
2020/12/18 00:09:21;;;;;;;;;;;26.90;41.10;;;;;;5035283;28;20362;-62
2020/12/18 00:11:47;;;;;;;;;;;26.90;41.10;;;;;;5034729;28;19921;-62
2020/12/18 00:14:12;;;;;;;;;;;26.80;41.10;;;;;;5035156;28;20275;-62
2020/12/18 00:16:38;;;;;;;;;;;26.80;41.20;;;;;;5035519;28;20007;-62
2020/12/18 00:19:04;;;;;;;;;;;26.80;41.10;;;;;;5034823;28;20260;-62
2020/12/18 00:21:29;;;;;;;;;;;26.80;41.20;;;;;;5034835;28;19939;-62
2020/12/18 00:23:55;;;;;;;;;;;26.80;41.10;;;;;;5035325;28;19910;-62
2020/12/18 00:26:20;;;;;;;;;;;26.80;41.10;;;;;;5027491;28;20360;-62
2020/12/18 00:28:46;;;;;;;;;;;26.80;41.00;;;;;;5024058;28;20399;-62
2020/12/18 00:31:12;;;;;;;;;;;26.80;41.10;;;;;;5035246;28;19917;-62
2020/12/18 00:33:37;;;;;;;;;;;26.80;41.10;;;;;;5034625;28;20370;-62
2020/12/18 00:36:03;;;;;;;;;;;26.80;41.20;;;;;;5034545;28;20326;-62
2020/12/18 00:38:28;;;;;;;;;;;26.80;41.10;;;;;;5034648;28;20008;-62
2020/12/18 00:40:54;;;;;;;;;;;26.80;41.10;;;;;;5034222;28;20371;-62
2020/12/18 00:43:19;;;;;;;;;;;26.80;41.20;;;;;;5020401;28;19917;-62
2020/12/18 00:45:45;;;;;;;;;;;26.80;41.20;;;;;;5034022;28;20410;-62
2020/12/18 00:48:10;;;;;;;;;;;26.70;41.20;;;;;;5034326;28;19921;-62
2020/12/18 00:50:36;;;;;;;;;;;26.80;41.10;;;;;;5034783;28;19913;-62
2020/12/18 00:53:02;;;;;;;;;;;26.90;41.10;;;;;;5034242;28;19917;-62
2020/12/18 00:55:27;;;;;;;;;;;26.90;41.00;;;;;;5034815;28;19959;-62
2020/12/18 00:57:52;;;;;;;;;;;26.90;40.90;;;;;;5034355;28;19931;-62
2020/12/18 01:00:18;;;;;;;;;;;26.90;40.90;;;;;;5034599;28;19917;-62
2020/12/18 01:02:44;;;;;;;;;;;26.90;40.90;;;;;;5034223;28;19948;-62
2020/12/18 01:05:09;;;;;;;;;;;26.90;40.90;;;;;;5034026;28;19920;-62
2020/12/18 01:07:35;;;;;;;;;;;26.90;40.90;;;;;;5034460;28;19940;-60
2020/12/18 01:10:00;;;;;;;;;;;26.90;40.90;;;;;;5034112;28;19909;-62
2020/12/18 01:12:25;;;;;;;;;;;26.90;40.80;;;;;;5033748;28;19925;-60
2020/12/18 01:14:51;;;;;;;;;;;26.90;40.90;;;;;;5034195;28;20378;-62
2020/12/18 01:17:16;;;;;;;;;;;26.90;40.80;;;;;;5033850;28;20035;-62
2020/12/18 01:19:42;;;;;;;;;;;26.90;40.80;;;;;;5033917;28;19936;-62
2020/12/18 01:22:07;;;;;;;;;;;26.90;40.90;;;;;;5034247;28;20363;-62
2020/12/18 01:24:33;;;;;;;;;;;26.90;40.80;;;;;;5034239;28;19916;-62
2020/12/18 01:26:58;;;;;;;;;;;26.90;40.90;;;;;;5021482;28;19909;-62
2020/12/18 01:29:24;;;;;;;;;;;26.90;40.90;;;;;;5028394;28;20027;-62
2020/12/18 01:31:49;;;;;;;;;;;26.90;41.00;;;;;;5033957;28;20394;-62
2020/12/18 01:34:15;;;;;;;;;;;26.80;40.90;;;;;;5033677;28;19913;-61
2020/12/18 01:36:40;;;;;;;;;;;26.90;41.10;;;;;;5033405;28;19913;-60
2020/12/18 01:39:06;;;;;;;;;;;26.90;40.90;;;;;;5033603;28;19927;-60
2020/12/18 01:41:31;;;;;;;;;;;26.90;40.90;;;;;;5033625;28;19970;-61
2020/12/18 01:43:57;;;;;;;;;;;26.80;40.80;;;;;;5033908;28;20601;-65
2020/12/18 01:46:24;;;;;;;;;;;26.90;40.90;;;;;;5033350;28;19923;-61
2020/12/18 01:48:50;;;;;;;;;;;26.80;40.90;;;;;;5032093;28;19913;-61
2020/12/18 01:51:15;;;;;;;;;;;26.90;41.00;;;;;;5065416;28;19916;-60
2020/12/18 01:53:41;;;;;;;;;;;26.80;41.00;;;;;;5033362;28;20004;-60
2020/12/18 01:56:07;;;;;;;;;;;26.80;41.10;;;;;;5033264;28;19932;-60
2020/12/18 01:58:33;;;;;;;;;;;26.70;41.10;;;;;;5032727;28;19932;-62
2020/12/18 02:00:59;;;;;;;;;;;26.80;41.00;;;;;;5033124;28;19917;-60
2020/12/18 02:03:24;;;;;;;;;;;26.80;41.00;;;;;;5064941;28;19914;-60
2020/12/18 02:05:50;;;;;;;;;;;26.80;41.00;;;;;;5032904;28;19967;-62
2020/12/18 02:08:15;;;;;;;;;;;26.90;40.90;;;;;;5031511;28;19932;-62
2020/12/18 02:10:41;;;;;;;;;;;26.80;40.90;;;;;;5064775;28;20272;-60
2020/12/18 02:13:06;;;;;;;;;;;26.80;40.80;;;;;;5032655;28;19921;-60
2020/12/18 02:15:31;;;;;;;;;;;26.90;40.90;;;;;;5032103;28;19913;-61
2020/12/18 02:17:58;;;;;;;;;;;26.80;40.80;;;;;;5031656;28;20360;-62
2020/12/18 02:20:25;;;;;;;;;;;26.80;40.80;;;;;;5031828;28;19936;-62
2020/12/18 02:22:50;;;;;;;;;;;26.90;40.90;;;;;;5032952;28;20003;-62
2020/12/18 02:25:17;;;;;;;;;;;26.90;40.90;;;;;;5032729;28;20020;-62
2020/12/18 02:27:43;;;;;;;;;;;26.80;40.80;;;;;;5031481;28;19936;-62
2020/12/18 02:30:10;;;;;;;;;;;26.80;40.80;;;;;;5013187;28;19921;-62
2020/12/18 02:32:35;;;;;;;;;;;26.80;40.80;;;;;;5013454;28;19910;-62
2020/12/18 02:35:01;;;;;;;;;;;26.90;40.80;;;;;;5020808;28;20268;-62
2020/12/18 02:37:26;;;;;;;;;;;26.90;40.80;;;;;;5032192;28;19919;-62
2020/12/18 02:39:56;;;;;;;;;;;26.90;40.80;;;;;;5032883;28;19921;-62
2020/12/18 02:42:21;;;;;;;;;;;26.80;40.80;;;;;;5032851;28;19913;-62
2020/12/18 02:44:47;;;;;;;;;;;26.80;40.90;;;;;;5032334;28;19971;-62
2020/12/18 02:47:13;;;;;;;;;;;26.80;41.00;;;;;;5032687;28;19916;-62
2020/12/18 02:49:38;;;;;;;;;;;26.80;40.90;;;;;;5032298;28;19913;-62
2020/12/18 02:52:04;;;;;;;;;;;26.80;40.80;;;;;;5032644;28;19967;-62
2020/12/18 02:54:29;;;;;;;;;;;26.80;40.80;;;;;;5031323;28;19913;-62
2020/12/18 02:56:55;;;;;;;;;;;26.80;40.80;;;;;;5032640;28;19931;-62
2020/12/18 02:59:20;;;;;;;;;;;26.80;40.90;;;;;;5032251;28;19975;-62
2020/12/18 03:01:46;;;;;;;;;;;26.80;40.80;;;;;;5032446;28;19909;-62
2020/12/18 03:04:11;;;;;;;;;;;26.80;40.80;;;;;;5031851;28;20004;-62
2020/12/18 03:06:37;;;;;;;;;;;26.80;40.70;;;;;;5032230;28;19913;-62
2020/12/18 03:09:02;;;;;;;;;;;26.90;40.80;;;;;;5033376;28;20326;-62
2020/12/18 03:11:28;;;;;;;;;;;26.90;40.70;;;;;;5035894;28;20363;-62
2020/12/18 03:13:53;;;;;;;;;;;26.90;40.70;;;;;;5036483;28;19928;-62
2020/12/18 03:16:19;;;;;;;;;;;26.90;40.80;;;;;;5036633;28;19913;-62
2020/12/18 03:18:44;;;;;;;;;;;26.80;40.70;;;;;;5035885;28;19925;-62
2020/12/18 03:21:10;;;;;;;;;;;26.90;40.70;;;;;;5036035;28;19917;-62
2020/12/18 03:23:35;;;;;;;;;;;26.90;40.80;;;;;;5035854;28;19989;-62
2020/12/18 03:26:01;;;;;;;;;;;26.80;40.80;;;;;;5031666;28;19992;-62
2020/12/18 03:28:26;;;;;;;;;;;26.80;40.90;;;;;;5022816;28;20355;-62
2020/12/18 03:30:51;;;;;;;;;;;26.80;40.80;;;;;;5036002;28;19953;-62
2020/12/18 03:33:17;;;;;;;;;;;26.70;40.80;;;;;;5036034;28;19913;-61
2020/12/18 03:35:42;;;;;;;;;;;26.80;40.80;;;;;;5035491;28;19963;-62
2020/12/18 03:38:08;;;;;;;;;;;26.70;40.80;;;;;;5035561;28;19998;-62
2020/12/18 03:40:33;;;;;;;;;;;26.80;40.80;;;;;;5036015;28;19909;-62
2020/12/18 03:42:59;;;;;;;;;;;26.80;40.80;;;;;;5035350;28;19921;-62
2020/12/18 03:45:24;;;;;;;;;;;26.80;40.80;;;;;;5035881;28;19959;-62
2020/12/18 03:47:50;;;;;;;;;;;26.80;40.80;;;;;;5035220;28;20375;-62
2020/12/18 03:50:15;;;;;;;;;;;26.80;40.80;;;;;;5035937;28;19920;-62
2020/12/18 03:52:41;;;;;;;;;;;26.80;40.70;;;;;;5035565;28;20351;-62
2020/12/18 03:55:06;;;;;;;;;;;26.80;40.80;;;;;;5035962;28;19917;-62
2020/12/18 03:57:32;;;;;;;;;;;26.90;40.70;;;;;;5035695;28;19920;-62
2020/12/18 03:59:57;;;;;;;;;;;26.90;40.70;;;;;;5034530;28;19967;-62
2020/12/18 04:02:23;;;;;;;;;;;26.80;40.60;;;;;;5035414;28;19960;-62
2020/12/18 04:04:48;;;;;;;;;;;26.80;40.70;;;;;;5035165;28;19917;-62
2020/12/18 04:07:13;;;;;;;;;;;26.80;40.60;;;;;;5035636;28;20351;-62
2020/12/18 04:09:39;;;;;;;;;;;26.80;40.70;;;;;;5035032;28;20012;-62
2020/12/18 04:12:05;;;;;;;;;;;26.70;40.90;;;;;;5034479;28;19921;-62
2020/12/18 04:14:30;;;;;;;;;;;26.80;40.80;;;;;;5035241;28;19913;-62
2020/12/18 04:16:56;;;;;;;;;;;26.80;40.70;;;;;;5035236;28;19920;-60
2020/12/18 04:19:21;;;;;;;;;;;26.80;40.60;;;;;;5035199;28;20298;-61
2020/12/18 04:21:47;;;;;;;;;;;26.80;40.60;;;;;;5034362;28;19917;-60
2020/12/18 04:24:12;;;;;;;;;;;26.70;40.70;;;;;;5035120;28;20279;-60
2020/12/18 04:26:38;;;;;;;;;;;26.80;40.80;;;;;;5034704;28;20011;-60
2020/12/18 04:29:03;;;;;;;;;;;26.70;40.70;;;;;;5035044;28;19913;-60
2020/12/18 04:31:28;;;;;;;;;;;26.80;40.80;;;;;;5035002;28;20302;-60
2020/12/18 04:33:54;;;;;;;;;;;26.80;40.60;;;;;;5030820;28;19909;-62
2020/12/18 04:36:19;;;;;;;;;;;26.90;40.50;;;;;;5034025;28;20326;-60
2020/12/18 04:38:45;;;;;;;;;;;26.90;40.50;;;;;;5034790;28;19924;-59
2020/12/18 04:41:10;;;;;;;;;;;26.80;40.70;;;;;;5034624;28;19920;-61
2020/12/18 04:43:36;;;;;;;;;;;26.80;40.60;;;;;;5034671;28;20019;-61
2020/12/18 04:46:01;;;;;;;;;;;26.90;40.50;;;;;;5034925;28;20355;-60
2020/12/18 04:48:27;;;;;;;;;;;26.90;40.40;;;;;;5066361;28;20004;-60
2020/12/18 04:50:56;;;;;;;;;;;26.90;40.30;;;;;;5034556;28;19909;-60
2020/12/18 04:53:26;;;;;;;;;;;27.00;40.30;;;;;;5034064;28;19918;-60
2020/12/18 04:55:52;;;;;;;;;;;27.00;40.20;;;;;;5034830;28;19913;-61
2020/12/18 04:58:17;;;;;;;;;;;27.00;40.20;;;;;;5033256;28;19928;-61
2020/12/18 05:00:43;;;;;;;;;;;27.00;40.20;;;;;;5066417;28;20441;-61
2020/12/18 05:03:09;;;;;;;;;;;27.00;40.20;;;;;;5032959;28;19920;-61
2020/12/18 05:05:34;;;;;;;;;;;26.90;40.30;;;;;;5033795;28;19956;-60
2020/12/18 05:08:00;;;;;;;;;;;26.90;40.30;;;;;;5034556;28;19910;-62
2020/12/18 05:10:25;;;;;;;;;;;26.90;40.30;;;;;;5034082;28;19973;-60
2020/12/18 05:12:51;;;;;;;;;;;27.00;40.20;;;;;;5033663;28;19928;-60
2020/12/18 05:15:16;;;;;;;;;;;26.90;40.30;;;;;;5034085;28;19943;-62
2020/12/18 05:17:42;;;;;;;;;;;27.00;40.30;;;;;;5034310;28;20363;-60
2020/12/18 05:20:08;;;;;;;;;;;26.90;40.30;;;;;;5034046;28;19918;-62
2020/12/18 05:22:33;;;;;;;;;;;27.00;40.30;;;;;;5034276;28;19974;-60
2020/12/18 05:24:59;;;;;;;;;;;27.00;40.20;;;;;;5033972;28;19916;-61
2020/12/18 05:27:24;;;;;;;;;;;27.00;40.30;;;;;;5017691;28;19992;-62
2020/12/18 05:29:50;;;;;;;;;;;27.00;40.20;;;;;;5012793;28;19909;-62
2020/12/18 05:32:15;;;;;;;;;;;27.00;40.20;;;;;;5012499;28;19909;-60
2020/12/18 05:34:41;;;;;;;;;;;26.90;40.20;;;;;;5026735;28;19924;-63
2020/12/18 05:37:06;;;;;;;;;;;26.90;40.30;;;;;;5034129;28;19913;-62
2020/12/18 05:39:36;;;;;;;;;;;26.90;40.30;;;;;;5033235;28;20280;-62
2020/12/18 05:42:01;;;;;;;;;;;27.00;40.30;;;;;;5033960;28;19967;-62
2020/12/18 05:44:27;;;;;;;;;;;27.00;40.20;;;;;;5033624;28;19917;-62
2020/12/18 05:46:57;;;;;;;;;;;27.00;40.20;;;;;;5033554;28;19924;-62
2020/12/18 05:49:29;;;;;;;;;;;27.00;40.20;;;;;;5031593;28;20442;-61
2020/12/18 05:51:55;;;;;;;;;;;26.90;40.20;;;;;;5033386;28;20331;-62
2020/12/18 05:54:20;;;;;;;;;;;26.90;40.30;;;;;;5033509;28;19943;-62
2020/12/18 05:56:47;;;;;;;;;;;26.90;40.20;;;;;;5033338;28;20378;-60
2020/12/18 05:59:16;;;;;;;;;;;27.00;40.20;;;;;;5033173;28;19947;-60
2020/12/18 06:01:42;;;;;;;;;;;26.90;40.30;;;;;;5033025;28;19917;-62
2020/12/18 06:04:09;;;;;;;;;;;26.90;40.30;;;;;;5032881;28;19917;-62
2020/12/18 06:06:35;;;;;;;;;;;26.90;40.30;;;;;;5033133;28;19992;-62
2020/12/18 06:09:00;;;;;;;;;;;26.90;40.30;;;;;;5032915;28;19913;-62
2020/12/18 06:11:26;;;;;;;;;;;26.90;40.30;;;;;;5031721;28;19924;-59
2020/12/18 06:13:51;;;;;;;;;;;26.90;40.30;;;;;;5033071;28;20394;-62
2020/12/18 06:16:16;;;;;;;;;;;26.90;40.30;;;;;;5065380;28;19909;-61
2020/12/18 06:18:43;;;;;;;;;;;26.90;40.30;;;;;;5064944;28;19948;-61
2020/12/18 06:21:08;;;;;;;;;;;26.90;40.30;;;;;;5032981;28;19917;-60
2020/12/18 06:23:33;;;;;;;;;;;27.00;40.20;;;;;;5065262;28;20374;-61
2020/12/18 06:25:59;;;;;;;;;;;26.90;40.10;;;;;;5031689;28;20043;-61
2020/12/18 06:28:24;;;;;;;;;;;27.00;40.20;;;;;;5033148;28;19916;-60
2020/12/18 06:30:59;;;;;;;;;;;26.90;40.20;;;;;;5064811;28;19948;-62
2020/12/18 06:33:45;;;;;;;;;;;26.90;40.20;;;;;;5032691;28;19916;-62
2020/12/18 06:36:10;;;;;;;;;;;26.90;40.20;;;;;;5032630;28;19909;-62
2020/12/18 06:38:36;;;;;;;;;;;27.00;40.10;;;;;;5032801;28;19913;-62
2020/12/18 06:41:13;;;;;;;;;;;26.90;40.10;;;;;;5032651;28;19956;-60
2020/12/18 06:43:39;;;;;;;;;;;26.90;40.10;;;;;;5030755;28;20347;-60
2020/12/18 06:46:05;;;;;;;;;;;26.90;40.20;;;;;;5032941;28;19983;-60
2020/12/18 06:48:30;;;;;;;;;;;27.00;40.10;;;;;;5032160;28;20009;-60
2020/12/18 06:50:56;;;;;;;;;;;27.00;40.10;;;;;;5032523;28;20003;-61
2020/12/18 06:53:21;;;;;;;;;;;27.00;40.70;;;;;;5032328;28;19921;-60
2020/12/18 06:55:47;;;;;;;;;;;27.00;40.10;;;;;;5032588;28;20279;-60
2020/12/18 06:58:16;;;;;;;;;;;27.00;40.00;;;;;;5032306;28;19971;-60
2020/12/18 07:00:41;;;;;;;;;;;26.90;40.10;;;;;;5032621;28;19909;-60
2020/12/18 07:03:07;;;;;;;;;;;27.00;40.10;;;;;;5032339;28;19913;-60
2020/12/18 07:05:39;;;;;;;;;;;26.90;40.10;;;;;;5032351;28;19921;-62
2020/12/18 07:08:15;;;;;;;;;;;26.90;40.10;;;;;;5032480;28;19913;-61
2020/12/18 07:10:41;;;;;;;;;;;27.00;40.10;;;;;;5021024;28;19920;-61
2020/12/18 07:13:08;;;;;;;;;;;27.00;40.10;;;;;;5032281;28;19921;-62
2020/12/18 07:15:42;;;;;;;;;;;27.00;40.10;;;;;;5032256;28;20295;-62
2020/12/18 07:18:20;;;;;;;;;;;26.90;40.10;;;;;;5032327;28;19955;-62
2020/12/18 07:20:52;;;;;;;;;;;27.00;40.10;;;;;;5032501;28;19920;-62
2020/12/18 07:23:18;;;;;;;;;;;26.90;40.10;;;;;;5032201;28;19960;-62
2020/12/18 07:25:44;;;;;;;;;;;26.90;40.20;;;;;;5032211;28;19913;-62
2020/12/18 07:28:09;;;;;;;;;;;26.90;40.10;;;;;;5032360;28;19917;-62
2020/12/18 07:30:38;;;;;;;;;;;27.00;40.20;;;;;;5032003;28;19913;-62
2020/12/18 07:33:04;;;;;;;;;;;27.00;40.10;;;;;;5032216;28;19924;-62
2020/12/18 07:35:30;;;;;;;;;;;27.00;40.00;;;;;;5031946;28;20294;-62
2020/12/18 07:37:55;;;;;;;;;;;26.90;40.10;;;;;;5032415;28;19909;-62
2020/12/18 07:40:21;;;;;;;;;;;27.00;40.00;;;;;;5031699;28;20315;-62
2020/12/18 07:42:46;;;;;;;;;;;27.00;40.10;;;;;;5031969;28;19913;-62
2020/12/18 07:45:12;;;;;;;;;;;27.00;40.10;;;;;;5032271;28;20330;-62
2020/12/18 07:47:37;;;;;;;;;;;26.90;40.10;;;;;;5031884;28;19920;-60
2020/12/18 07:50:03;;;;;;;;;;;27.00;40.10;;;;;;5032053;28;19995;-60
2020/12/18 07:52:29;;;;;;;;;;;26.90;40.00;;;;;;5032298;28;19909;-62
2020/12/18 07:54:55;;;;;;;;;;;26.90;40.10;;;;;;5032230;28;20430;-62
2020/12/18 07:57:20;;;;;;;;;;;26.90;40.10;;;;;;5035726;28;19913;-62
2020/12/18 07:59:46;;;;;;;;;;;26.90;40.10;;;;;;5035452;28;19923;-62
2020/12/18 08:02:20;;;;;;;;;;;26.90;40.20;;;;;;5035549;28;19910;-62
2020/12/18 08:04:47;;;;;;;;;;;26.90;40.20;;;;;;5067161;28;19952;-61
2020/12/18 08:07:13;;;;;;;;;;;26.90;40.10;;;;;;5035491;28;19917;-62
2020/12/18 08:09:38;;;;;;;;;;;26.90;40.20;;;;;;5066968;28;19913;-62
2020/12/18 08:12:07;;;;;;;;;;;26.90;40.20;;;;;;5034164;28;19990;-60
2020/12/18 08:14:32;;;;;;;;;;;26.90;40.30;;;;;;5033644;28;20272;-61
2020/12/18 08:16:58;;;;;;;;;;;26.90;40.30;;;;;;5035502;28;19916;-62
2020/12/18 08:19:23;;;;;;;;;;;26.90;40.20;;;;;;5034527;28;20013;-63
2020/12/18 08:21:49;;;;;;;;;;;26.90;40.20;;;;;;5035028;28;19913;-63
2020/12/18 08:24:14;;;;;;;;;;;26.80;40.10;;;;;;5035212;28;19917;-62
2020/12/18 08:26:45;;;;;;;;;;;26.90;40.10;;;;;;5034850;28;19913;-62
2020/12/18 08:29:10;;;;;;;;;;;26.90;40.00;;;;;;5067409;28;19913;-62
2020/12/18 08:31:36;;;;;;;;;;;26.90;40.00;;;;;;5034774;28;20000;-62
2020/12/18 08:34:05;;;;;;;;;;;27.00;40.10;;;;;;5034145;28;20000;-62
2020/12/18 08:36:30;;;;;;;;;;;27.00;40.00;;;;;;5034915;28;19913;-62
2020/12/18 08:39:00;;;;;;;;;;;27.00;39.90;;;;;;5033058;28;19979;-62
2020/12/18 08:41:25;;;;;;;;;;;27.00;40.00;;;;;;5034803;28;20389;-62
2020/12/18 08:44:03;;;;;;;;;;;27.00;39.90;;;;;;5034772;28;19917;-62
2020/12/18 08:46:34;;;;;;;;;;;27.00;40.00;;;;;;5034616;28;20304;-62
2020/12/18 08:49:00;;;;;;;;;;;27.00;39.90;;;;;;5034321;28;19920;-62
2020/12/18 08:51:27;;;;;;;;;;;26.90;39.90;;;;;;5034926;28;20261;-62
2020/12/18 08:53:52;;;;;;;;;;;26.90;40.10;;;;;;5034617;28;20524;-62
2020/12/18 08:56:18;;;;;;;;;;;26.90;40.00;;;;;;5034786;28;19952;-62
2020/12/18 08:58:44;;;;;;;;;;;27.00;39.90;;;;;;5033797;28;19932;-62
2020/12/18 09:01:22;;;;;;;;;;;27.00;40.00;;;;;;5034076;28;19914;-62
2020/12/18 09:03:48;;;;;;;;;;;27.00;39.90;;;;;;5034046;28;19940;-62
2020/12/18 09:06:13;;;;;;;;;;;26.90;39.90;;;;;;5033940;28;19909;-62
2020/12/18 09:08:39;;;;;;;;;;;27.00;40.00;;;;;;5034088;28;20350;-62
2020/12/18 09:11:04;;;;;;;;;;;26.90;40.10;;;;;;5034305;28;20416;-62
2020/12/18 09:13:30;;;;;;;;;;;26.90;40.00;;;;;;5033640;28;19931;-62
2020/12/18 09:15:56;;;;;;;;;;;27.00;40.00;;;;;;5034052;28;19966;-62
2020/12/18 09:18:23;;;;;;;;;;;27.00;39.90;;;;;;5034037;28;19929;-62
2020/12/18 09:20:48;;;;;;;;;;;27.00;40.00;;;;;;5033538;28;19962;-63
2020/12/18 09:23:16;;;;;;;;;;;27.00;40.10;;;;;;5033240;28;20212;-62
2020/12/18 09:25:42;;;;;;;;;;;27.00;40.00;;;;;;5031733;28;19967;-62
2020/12/18 09:28:11;;;;;;;;;;;26.90;40.10;;;;;;5023483;28;19917;-62
2020/12/18 09:30:37;;;;;;;;;;;26.90;40.20;;;;;;5033792;28;20016;-62
2020/12/18 09:33:26;;;;;;;;;;;27.00;40.10;;;;;;5033595;28;19957;-62
2020/12/18 09:36:12;;;;;;;;;;;27.00;40.00;;;;;;5034027;28;19913;-60
2020/12/18 09:38:38;;;;;;;;;;;27.00;40.00;;;;;;5033315;28;19925;-62
2020/12/18 09:41:04;;;;;;;;;;;27.00;40.00;;;;;;5033937;28;19909;-62
2020/12/18 09:43:30;;;;;;;;;;;27.00;40.00;;;;;;5033470;28;19952;-62
2020/12/18 09:45:56;;;;;;;;;;;26.90;40.10;;;;;;5033966;28;19943;-62
2020/12/18 09:48:21;;;;;;;;;;;26.90;40.10;;;;;;5033256;28;19913;-62
2020/12/18 09:50:50;;;;;;;;;;;26.90;40.20;;;;;;5033426;28;19917;-62
2020/12/18 09:53:16;;;;;;;;;;;26.80;40.20;;;;;;5033236;28;19913;-62
2020/12/18 09:55:41;;;;;;;;;;;26.90;40.30;;;;;;5033491;28;19920;-62
2020/12/18 09:58:07;;;;;;;;;;;26.90;40.20;;;;;;5033182;28;19910;-62
2020/12/18 10:00:32;;;;;;;;;;;26.90;40.10;;;;;;5033336;28;19969;-60
2020/12/18 10:02:58;;;;;;;;;;;26.90;40.20;;;;;;5032716;28;20275;-61
2020/12/18 10:05:24;;;;;;;;;;;26.90;40.10;;;;;;5033029;28;19913;-60
2020/12/18 10:07:50;;;;;;;;;;;26.90;40.00;;;;;;5033435;28;19910;-60
2020/12/18 10:10:15;;;;;;;;;;;26.90;40.10;;;;;;5032875;28;19920;-62
2020/12/18 10:12:41;;;;;;;;;;;26.90;40.30;;;;;;5032660;28;19921;-60
2020/12/18 10:15:07;;;;;;;;;;;26.90;40.30;;;;;;5033102;28;19968;-62
2020/12/18 10:17:32;;;;;;;;;;;26.90;40.30;;;;;;5033026;28;20295;-60
2020/12/18 10:19:58;;;;;;;;;;;26.90;40.30;;;;;;5032077;28;19920;-62
2020/12/18 10:22:23;;;;;;;;;;;26.90;40.10;;;;;;5032996;28;19924;-60
2020/12/18 10:24:49;;;;;;;;;;;26.90;40.10;;;;;;5032941;28;20351;-60
2020/12/18 10:27:15;;;;;;;;;;;26.90;40.10;;;;;;5023321;28;20386;-60
2020/12/18 10:29:41;;;;;;;;;;;26.90;40.10;;;;;;5032873;28;20272;-60
2020/12/18 10:32:06;;;;;;;;;;;27.00;40.10;;;;;;5032589;28;19935;-60
2020/12/18 10:34:32;;;;;;;;;;;27.00;40.10;;;;;;5024484;28;20012;-60
2020/12/18 10:36:57;;;;;;;;;;;26.90;40.00;;;;;;5032593;28;19961;-60
2020/12/18 10:39:23;;;;;;;;;;;27.00;40.00;;;;;;5032214;28;19928;-60
2020/12/18 10:41:49;;;;;;;;;;;27.00;40.10;;;;;;5032739;28;19917;-60
2020/12/18 10:44:15;;;;;;;;;;;27.00;40.10;;;;;;5032507;28;19909;-61
2020/12/18 10:46:41;;;;;;;;;;;27.00;40.10;;;;;;5032713;28;19920;-60
2020/12/18 10:49:07;;;;;;;;;;;26.90;40.10;;;;;;5032395;28;19909;-60
2020/12/18 10:51:32;;;;;;;;;;;27.00;40.20;;;;;;5032491;28;20299;-60
2020/12/18 10:53:58;;;;;;;;;;;27.00;40.10;;;;;;5031959;28;19909;-60
2020/12/18 10:56:23;;;;;;;;;;;27.00;40.10;;;;;;5032779;28;19917;-60
2020/12/18 10:58:49;;;;;;;;;;;27.00;40.00;;;;;;5031822;28;19967;-60
2020/12/18 11:01:17;;;;;;;;;;;27.00;40.10;;;;;;5031820;28;19914;-60
2020/12/18 11:03:43;;;;;;;;;;;27.00;40.10;;;;;;5032128;28;20363;-60
2020/12/18 11:06:09;;;;;;;;;;;27.10;40.10;;;;;;5032252;28;19923;-60
2020/12/18 11:08:34;;;;;;;;;;;27.10;40.00;;;;;;5032682;28;20318;-60
2020/12/18 11:11:00;;;;;;;;;;;27.10;40.10;;;;;;5032022;28;19971;-60
2020/12/18 11:13:25;;;;;;;;;;;27.10;40.00;;;;;;5032111;28;19921;-60
2020/12/18 11:15:51;;;;;;;;;;;27.10;39.90;;;;;;5032642;28;19916;-60
2020/12/18 11:18:16;;;;;;;;;;;27.10;39.90;;;;;;5032208;28;19920;-60
2020/12/18 11:20:42;;;;;;;;;;;27.10;39.90;;;;;;5031383;28;20363;-60
2020/12/18 11:23:07;;;;;;;;;;;27.10;39.90;;;;;;5032090;28;20003;-60
2020/12/18 11:25:32;;;;;;;;;;;27.10;39.90;;;;;;5031298;28;19998;-60
2020/12/18 11:27:58;;;;;;;;;;;27.20;40.00;;;;;;5014976;28;19913;-60
2020/12/18 11:30:23;;;;;;;;;;;27.20;40.00;;;;;;5033771;28;20354;-60
2020/12/18 11:32:49;;;;;;;;;;;27.10;39.90;;;;;;5035651;28;20275;-60
2020/12/18 11:35:16;;;;;;;;;;;27.20;40.00;;;;;;5035480;28;19924;-61
2020/12/18 11:37:42;;;;;;;;;;;27.20;40.00;;;;;;5036026;28;19909;-60
2020/12/18 11:40:07;;;;;;;;;;;27.20;40.00;;;;;;5035289;28;19921;-60
2020/12/18 11:42:33;;;;;;;;;;;27.20;40.00;;;;;;5035941;28;19992;-62
2020/12/18 11:44:58;;;;;;;;;;;27.20;40.00;;;;;;5035586;28;20367;-62
2020/12/18 11:47:26;;;;;;;;;;;27.20;40.00;;;;;;5036080;28;19909;-63
2020/12/18 11:49:51;;;;;;;;;;;27.10;39.90;;;;;;5035634;28;19913;-60
2020/12/18 11:52:17;;;;;;;;;;;27.20;40.00;;;;;;5035831;28;19916;-62
2020/12/18 11:54:42;;;;;;;;;;;27.20;40.00;;;;;;5035674;28;20015;-62
2020/12/18 11:57:08;;;;;;;;;;;27.20;40.00;;;;;;5035601;28;20335;-62
2020/12/18 11:59:33;;;;;;;;;;;27.10;40.10;;;;;;5035129;28;19921;-62
2020/12/18 12:01:59;;;;;;;;;;;27.20;40.20;;;;;;5035052;28;19967;-62
2020/12/18 12:04:24;;;;;;;;;;;27.20;40.20;;;;;;5034106;28;20616;-62
2020/12/18 12:06:50;;;;;;;;;;;27.20;40.20;;;;;;5035473;28;19917;-61
2020/12/18 12:09:15;;;;;;;;;;;27.10;40.20;;;;;;5035223;28;19917;-62
2020/12/18 12:11:41;;;;;;;;;;;27.20;40.20;;;;;;5034898;28;19921;-62
2020/12/18 12:14:07;;;;;;;;;;;27.20;40.10;;;;;;5035253;28;19913;-61
2020/12/18 12:16:33;;;;;;;;;;;27.20;40.10;;;;;;5035521;28;19909;-60
2020/12/18 12:18:59;;;;;;;;;;;27.20;40.20;;;;;;5034980;28;19917;-60
2020/12/18 12:21:30;;;;;;;;;;;27.20;40.30;;;;;;5035159;28;20256;-60
2020/12/18 12:23:55;;;;;;;;;;;27.20;40.20;;;;;;5034982;28;19920;-60
2020/12/18 12:26:21;;;;;;;;;;;27.20;40.20;;;;;;5034781;28;19913;-60
2020/12/18 12:28:46;;;;;;;;;;;27.20;40.20;;;;;;5034793;28;19913;-62
2020/12/18 12:31:12;;;;;;;;;;;27.20;40.20;;;;;;5035219;28;20387;-60
2020/12/18 12:33:37;;;;;;;;;;;27.20;40.20;;;;;;5034476;28;19909;-60
2020/12/18 12:36:03;;;;;;;;;;;27.20;40.30;;;;;;5034623;28;19917;-60
2020/12/18 12:38:28;;;;;;;;;;;27.20;40.40;;;;;;5034367;28;19909;-60
2020/12/18 12:40:54;;;;;;;;;;;27.10;40.40;;;;;;5034506;28;19913;-60
2020/12/18 12:43:19;;;;;;;;;;;27.20;40.40;;;;;;5034013;28;19917;-60
2020/12/18 12:45:45;;;;;;;;;;;27.20;40.40;;;;;;5034514;28;19996;-60
2020/12/18 12:48:10;;;;;;;;;;;27.20;40.30;;;;;;5034713;28;19967;-61
2020/12/18 12:50:36;;;;;;;;;;;27.30;40.30;;;;;;5034484;28;19966;-60
2020/12/18 12:53:02;;;;;;;;;;;27.30;40.90;;;;;;5034699;28;19924;-60
2020/12/18 12:55:27;;;;;;;;;;;27.30;40.20;;;;;;5034891;28;19909;-60
2020/12/18 12:57:53;;;;;;;;;;;27.30;40.30;;;;;;5034525;28;19935;-60
2020/12/18 13:00:18;;;;;;;;;;;27.30;40.30;;;;;;5034652;28;19928;-60
2020/12/18 13:02:44;;;;;;;;;;;27.30;40.30;;;;;;5034088;28;19956;-60
2020/12/18 13:05:09;;;;;;;;;;;27.30;40.40;;;;;;5034290;28;19916;-60
2020/12/18 13:07:35;;;;;;;;;;;27.30;40.40;;;;;;5034524;28;20306;-60
2020/12/18 13:10:00;;;;;;;;;;;27.30;40.30;;;;;;5033919;28;20008;-60
2020/12/18 13:12:26;;;;;;;;;;;27.30;40.40;;;;;;5034257;28;19998;-60
2020/12/18 13:14:51;;;;;;;;;;;27.30;40.40;;;;;;5034419;28;19917;-60
2020/12/18 13:17:17;;;;;;;;;;;27.30;40.50;;;;;;5034283;28;20369;-60
2020/12/18 13:19:42;;;;;;;;;;;27.30;40.50;;;;;;5033742;28;19932;-60
2020/12/18 13:22:08;;;;;;;;;;;27.30;40.40;;;;;;5034222;28;19995;-60
2020/12/18 13:24:33;;;;;;;;;;;27.30;40.50;;;;;;5033799;28;20291;-62
2020/12/18 13:26:59;;;;;;;;;;;27.30;40.40;;;;;;5034183;28;19909;-62
2020/12/18 13:29:24;;;;;;;;;;;27.30;40.60;;;;;;5034193;28;20321;-62
2020/12/18 13:31:49;;;;;;;;;;;27.30;40.50;;;;;;5033739;28;20368;-62
2020/12/18 13:34:15;;;;;;;;;;;27.40;40.50;;;;;;5033518;28;19920;-62
2020/12/18 13:36:42;;;;;;;;;;;27.30;40.50;;;;;;5033382;28;19913;-62
2020/12/18 13:39:08;;;;;;;;;;;27.40;40.60;;;;;;5033347;28;20030;-62
2020/12/18 13:41:33;;;;;;;;;;;27.30;40.50;;;;;;5033942;28;19912;-62
2020/12/18 13:43:58;;;;;;;;;;;27.30;40.70;;;;;;5033747;28;20319;-62
2020/12/18 13:46:25;;;;;;;;;;;27.30;40.60;;;;;;5033607;28;19909;-62
2020/12/18 13:48:51;;;;;;;;;;;27.30;40.60;;;;;;5032979;28;19913;-62
2020/12/18 13:51:16;;;;;;;;;;;27.30;40.60;;;;;;5033683;28;19967;-62
2020/12/18 13:53:42;;;;;;;;;;;27.30;40.60;;;;;;5032963;28;19956;-62
2020/12/18 13:56:08;;;;;;;;;;;27.40;40.70;;;;;;5033364;28;19909;-62
2020/12/18 13:58:33;;;;;;;;;;;27.40;40.60;;;;;;5033508;28;20011;-62
2020/12/18 14:00:59;;;;;;;;;;;27.40;40.70;;;;;;5033123;28;20256;-62
2020/12/18 14:03:24;;;;;;;;;;;27.40;40.60;;;;;;5032636;28;20019;-62
2020/12/18 14:05:50;;;;;;;;;;;27.50;40.60;;;;;;5032687;28;20322;-62
2020/12/18 14:08:15;;;;;;;;;;;27.40;40.50;;;;;;5033203;28;19916;-62
2020/12/18 14:10:41;;;;;;;;;;;27.40;40.60;;;;;;5033075;28;19913;-62